createdAt,value
2023-03-26T00:01:36.654Z,2.70
2023-03-26T00:04:07.550Z,1.87
2023-03-26T00:06:39.942Z,3.00
2023-03-26T00:09:09.595Z,1.47
2023-03-26T00:11:38.244Z,2.20
2023-03-26T00:14:06.909Z,2.10
2023-03-26T00:16:35.574Z,1.87
2023-03-26T00:19:04.262Z,3.03
2023-03-26T00:21:34.764Z,3.13
2023-03-26T00:24:05.401Z,1.83
2023-03-26T00:26:34.082Z,1.30
2023-03-26T00:29:04.052Z,1.47
2023-03-26T00:31:32.866Z,1.47
2023-03-26T00:34:03.626Z,1.90
2023-03-26T00:36:35.750Z,1.77
2023-03-26T00:39:05.663Z,1.90
2023-03-26T00:41:37.077Z,1.23
2023-03-26T00:44:06.036Z,2.00
2023-03-26T00:46:36.298Z,4.37
2023-03-26T00:49:04.955Z,2.70
2023-03-26T00:51:35.072Z,2.07
2023-03-26T00:54:03.848Z,1.60
2023-03-26T00:56:32.762Z,1.67
2023-03-26T00:59:01.364Z,4.13
2023-03-26T01:01:30.482Z,1.80
2023-03-26T01:04:08.814Z,3.70
2023-03-26T01:06:42.271Z,1.27
2023-03-26T01:09:15.932Z,2.13
2023-03-26T01:11:44.649Z,1.10
2023-03-26T01:14:14.399Z,4.00
2023-03-26T01:16:45.138Z,2.90
2023-03-26T01:19:16.466Z,4.40
2023-03-26T01:21:47.347Z,3.20
2023-03-26T01:24:18.102Z,2.40
2023-03-26T01:26:58.268Z,1.53
2023-03-26T01:29:31.549Z,3.10
2023-03-26T01:32:04.847Z,1.63
2023-03-26T01:34:39.269Z,7.23
2023-03-26T01:37:14.398Z,6.10
2023-03-26T01:39:49.645Z,2.80
2023-03-26T01:42:20.183Z,2.60
2023-03-26T01:44:51.628Z,1.53
2023-03-26T01:47:20.287Z,1.30
2023-03-26T01:49:48.940Z,1.80
2023-03-26T01:52:19.210Z,0.90
2023-03-26T01:54:49.190Z,0.70
2023-03-26T01:57:19.323Z,0.90
2023-03-26T01:59:56.231Z,0.93
2023-03-26T02:02:28.791Z,1.00
2023-03-26T02:04:58.556Z,1.20
2023-03-26T02:07:28.895Z,0.90
2023-03-26T02:10:00.484Z,0.90
2023-03-26T02:12:29.149Z,0.87
2023-03-26T02:14:57.776Z,0.67
2023-03-26T02:17:29.994Z,2.70
2023-03-26T02:19:58.727Z,0.90
2023-03-26T02:22:30.042Z,3.70
2023-03-26T02:25:00.106Z,2.53
2023-03-26T02:27:28.879Z,0.70
2023-03-26T02:29:58.617Z,2.47
2023-03-26T02:32:29.157Z,0.87
2023-03-26T02:34:58.580Z,0.90
2023-03-26T02:37:27.175Z,1.03
2023-03-26T02:39:55.798Z,0.50
2023-03-26T02:42:25.834Z,0.70
2023-03-26T02:44:54.526Z,1.40
2023-03-26T02:47:23.225Z,0.70
2023-03-26T02:49:51.844Z,0.70
2023-03-26T02:52:20.524Z,0.90
2023-03-26T02:54:49.166Z,2.00
2023-03-26T02:57:17.782Z,1.00
2023-03-26T02:59:50.355Z,1.10
2023-03-26T03:02:19.401Z,1.03
2023-03-26T03:04:48.059Z,1.90
2023-03-26T03:07:16.780Z,1.30
2023-03-26T03:09:45.362Z,1.50
2023-03-26T03:12:14.006Z,1.43
2023-03-26T03:14:42.553Z,1.50
2023-03-26T03:17:12.584Z,4.30
2023-03-26T03:19:41.251Z,2.87
2023-03-26T03:22:10.146Z,1.37
2023-03-26T03:24:38.765Z,2.33
2023-03-26T03:27:07.422Z,2.30
2023-03-26T03:29:36.148Z,1.67
2023-03-26T03:32:04.906Z,3.80
2023-03-26T03:34:34.913Z,3.10
2023-03-26T03:37:03.549Z,1.40
2023-03-26T03:39:32.180Z,1.30
2023-03-26T03:42:00.808Z,1.87
2023-03-26T03:44:29.439Z,1.80
2023-03-26T03:46:58.650Z,4.93
2023-03-26T03:49:27.236Z,2.50
2023-03-26T03:51:57.460Z,2.30
2023-03-26T03:54:26.078Z,1.50
2023-03-26T03:56:54.951Z,1.77
2023-03-26T03:59:23.680Z,2.50
2023-03-26T04:01:52.300Z,2.20
2023-03-26T04:04:22.005Z,2.37
2023-03-26T04:06:50.917Z,3.03
2023-03-26T04:09:20.960Z,2.67
2023-03-26T04:11:50.752Z,3.33
2023-03-26T04:14:19.347Z,6.33
2023-03-26T04:16:48.980Z,1.90
2023-03-26T04:19:17.545Z,2.37
2023-03-26T04:21:46.157Z,1.80
2023-03-26T04:24:14.786Z,2.50
2023-03-26T04:26:44.848Z,1.73
2023-03-26T04:29:17.215Z,1.47
2023-03-26T04:31:47.203Z,3.10
2023-03-26T04:34:24.114Z,1.40
2023-03-26T04:36:54.498Z,6.23
2023-03-26T04:39:23.336Z,3.00
2023-03-26T04:41:54.078Z,1.40
2023-03-26T04:44:23.400Z,3.73
2023-03-26T04:46:53.077Z,2.87
2023-03-26T04:49:21.754Z,2.47
2023-03-26T04:51:51.175Z,1.70
2023-03-26T04:54:20.173Z,2.83
2023-03-26T04:56:51.189Z,1.33
2023-03-26T04:59:26.064Z,1.80
2023-03-26T05:01:55.255Z,1.73
2023-03-26T05:04:23.906Z,1.80
2023-03-26T05:06:52.503Z,1.93
2023-03-26T05:09:22.133Z,1.90
2023-03-26T05:11:50.815Z,1.50
2023-03-26T05:14:20.985Z,2.60
2023-03-26T05:16:50.407Z,2.43
2023-03-26T05:19:19.094Z,4.00
2023-03-26T05:21:47.744Z,3.27
2023-03-26T05:24:16.511Z,1.20
2023-03-26T05:26:45.119Z,1.70
2023-03-26T05:29:14.393Z,4.00
2023-03-26T05:31:44.479Z,1.47
2023-03-26T05:34:13.805Z,2.30
2023-03-26T05:36:43.942Z,1.63
2023-03-26T05:39:14.205Z,5.43
2023-03-26T05:41:43.596Z,1.37
2023-03-26T05:44:12.195Z,1.77
2023-03-26T05:46:40.897Z,2.93
2023-03-26T05:49:11.596Z,1.97
2023-03-26T05:51:40.372Z,6.97
2023-03-26T05:54:08.996Z,2.77
2023-03-26T05:56:37.779Z,1.97
2023-03-26T05:59:06.739Z,3.33
2023-03-26T06:01:37.163Z,2.53
2023-03-26T06:04:06.025Z,4.20
2023-03-26T06:06:36.115Z,2.60
2023-03-26T06:09:05.171Z,4.00
2023-03-26T06:11:33.773Z,4.20
2023-03-26T06:14:02.460Z,4.93
2023-03-26T06:16:31.202Z,2.00
2023-03-26T06:19:00.013Z,3.23
2023-03-26T06:21:28.832Z,1.90
2023-03-26T06:23:59.017Z,1.93
2023-03-26T06:26:27.691Z,1.97
2023-03-26T06:28:56.307Z,3.90
2023-03-26T06:31:25.075Z,2.50
2023-03-26T06:33:53.872Z,5.23
2023-03-26T06:36:22.537Z,3.70
2023-03-26T06:38:51.168Z,3.13
2023-03-26T06:41:21.282Z,7.87
2023-03-26T06:43:49.910Z,2.17
2023-03-26T06:46:18.781Z,4.10
2023-03-26T06:48:48.088Z,2.63
2023-03-26T06:51:17.497Z,3.47
2023-03-26T06:53:46.183Z,3.23
2023-03-26T06:56:14.832Z,6.93
2023-03-26T06:58:44.849Z,4.63
2023-03-26T07:01:13.532Z,4.60
2023-03-26T07:03:42.218Z,3.23
2023-03-26T07:06:11.237Z,2.93
2023-03-26T07:08:39.832Z,5.50
2023-03-26T07:11:08.614Z,1.90
2023-03-26T07:13:37.807Z,4.63
2023-03-26T07:16:08.473Z,2.87
2023-03-26T07:18:37.126Z,3.00
2023-03-26T07:21:06.659Z,2.37
2023-03-26T07:23:36.237Z,1.43
2023-03-26T07:26:10.832Z,5.93
2023-03-26T07:28:41.180Z,2.00
2023-03-26T07:31:19.492Z,1.63
2023-03-26T07:33:50.596Z,1.83
2023-03-26T07:36:22.732Z,4.90
2023-03-26T07:39:00.180Z,1.20
2023-03-26T07:41:31.893Z,1.00
2023-03-26T07:44:07.422Z,2.63
2023-03-26T07:46:39.233Z,1.23
2023-03-26T07:49:10.163Z,0.70
2023-03-26T07:51:39.209Z,1.37
2023-03-26T07:54:09.621Z,1.47
2023-03-26T07:56:41.979Z,1.10
2023-03-26T07:59:24.454Z,1.70
2023-03-26T08:02:01.262Z,2.40
2023-03-26T08:04:44.197Z,3.90
2023-03-26T08:07:16.759Z,2.33
2023-03-26T08:09:51.783Z,3.27
2023-03-26T08:12:22.960Z,1.20
2023-03-26T08:14:53.953Z,4.40
2023-03-26T08:17:30.947Z,9.60
2023-03-26T08:20:07.559Z,2.07
2023-03-26T08:22:37.395Z,3.03
2023-03-26T08:25:33.186Z,2.30
2023-03-26T08:28:10.705Z,2.67
2023-03-26T08:30:39.597Z,7.27
2023-03-26T08:33:14.476Z,4.00
2023-03-26T08:35:43.224Z,4.13
2023-03-26T08:38:11.823Z,3.53
2023-03-26T08:41:29.350Z,2.20
2023-03-26T08:44:33.412Z,2.00
2023-03-26T08:47:40.516Z,6.47
2023-03-26T08:50:31.820Z,4.67
2023-03-26T08:53:28.947Z,2.90
2023-03-26T08:55:58.072Z,1.90
2023-03-26T08:58:50.709Z,1.80
2023-03-26T09:01:50.902Z,1.57
2023-03-26T09:04:48.464Z,2.83
2023-03-26T09:07:42.689Z,4.53
2023-03-26T09:10:32.777Z,2.23
2023-03-26T09:13:26.008Z,6.50
2023-03-26T09:16:33.094Z,2.53
2023-03-26T09:19:14.167Z,6.70
2023-03-26T09:22:14.283Z,5.67
2023-03-26T09:25:01.485Z,2.90
2023-03-26T09:27:40.761Z,5.50
2023-03-26T09:30:43.316Z,2.33
2023-03-26T09:33:37.145Z,2.90
2023-03-26T09:36:21.717Z,4.27
2023-03-26T09:38:54.481Z,2.40
2023-03-26T09:41:34.224Z,7.17
2023-03-26T09:44:25.501Z,4.53
2023-03-26T09:47:01.768Z,4.23
2023-03-26T09:49:52.381Z,3.90
2023-03-26T09:52:42.354Z,3.20
2023-03-26T09:55:21.604Z,5.90
2023-03-26T09:58:31.895Z,4.97
2023-03-26T10:01:05.684Z,7.90
2023-03-26T10:03:42.528Z,7.07
2023-03-26T10:06:27.319Z,2.90
2023-03-26T10:09:11.074Z,4.50
2023-03-26T10:11:52.983Z,3.97
2023-03-26T10:14:25.813Z,2.50
2023-03-26T10:17:01.420Z,8.03
2023-03-26T10:19:43.828Z,6.03
2023-03-26T10:22:22.316Z,4.50
2023-03-26T10:25:08.230Z,3.20
2023-03-26T10:27:42.327Z,10.73
2023-03-26T10:30:48.214Z,2.17
2023-03-26T10:33:25.060Z,3.10
2023-03-26T10:36:12.190Z,1.37
2023-03-26T10:38:59.669Z,2.50
2023-03-26T10:41:32.038Z,1.90
2023-03-26T10:44:13.712Z,2.53
2023-03-26T10:47:03.887Z,4.17
2023-03-26T10:49:51.416Z,2.00
2023-03-26T10:52:20.932Z,4.00
2023-03-26T10:54:54.855Z,2.40
2023-03-26T10:57:39.163Z,3.13
2023-03-26T11:00:16.246Z,4.20
2023-03-26T11:02:52.493Z,6.00
2023-03-26T11:05:29.612Z,2.10
2023-03-26T11:08:00.270Z,2.50
2023-03-26T11:10:33.932Z,3.37
2023-03-26T11:13:05.698Z,5.47
2023-03-26T11:15:37.567Z,4.50
2023-03-26T11:18:12.485Z,2.03
2023-03-26T11:20:43.016Z,1.10
2023-03-26T11:23:23.684Z,2.37
2023-03-26T11:25:59.566Z,1.53
2023-03-26T11:28:34.562Z,1.07
2023-03-26T11:31:05.547Z,6.80
2023-03-26T11:33:37.732Z,4.87
2023-03-26T11:36:17.598Z,2.27
2023-03-26T11:38:47.565Z,6.83
2023-03-26T11:41:22.553Z,5.63
2023-03-26T11:43:53.541Z,1.57
2023-03-26T11:46:22.940Z,1.27
2023-03-26T11:48:54.643Z,1.83
2023-03-26T11:51:26.551Z,4.50
2023-03-26T11:53:57.784Z,1.67
2023-03-26T11:56:29.382Z,1.30
2023-03-26T11:59:01.458Z,1.97
2023-03-26T12:01:31.019Z,1.57
2023-03-26T12:04:05.478Z,1.10
2023-03-26T12:06:34.502Z,2.23
2023-03-26T12:09:03.254Z,1.63
2023-03-26T12:11:35.437Z,2.60
2023-03-26T12:14:04.817Z,1.37
2023-03-26T12:16:33.475Z,2.20
2023-03-26T12:19:05.420Z,4.00
2023-03-26T12:21:44.021Z,3.03
2023-03-26T12:24:25.570Z,2.60
2023-03-26T12:27:01.946Z,7.60
2023-03-26T12:29:34.551Z,2.10
2023-03-26T12:32:08.369Z,1.23
2023-03-26T12:34:39.462Z,1.83
2023-03-26T12:37:08.876Z,4.00
2023-03-26T12:40:10.246Z,1.43
2023-03-26T12:44:51.242Z,4.57
2023-03-26T12:45:17.796Z,1.10
2023-03-26T12:48:01.144Z,2.50
2023-03-26T12:50:37.195Z,1.37
2023-03-26T12:53:38.691Z,2.10
2023-03-26T12:56:13.362Z,1.90
2023-03-26T12:58:51.456Z,3.50
2023-03-26T13:01:26.224Z,2.90
2023-03-26T13:04:18.497Z,0.83
2023-03-26T13:07:02.044Z,0.93
2023-03-26T13:09:48.856Z,2.10
2023-03-26T13:12:25.751Z,5.07
2023-03-26T13:15:02.201Z,0.63
2023-03-26T13:17:33.468Z,1.03
2023-03-26T13:20:06.681Z,1.60
2023-03-26T13:22:40.898Z,0.97
2023-03-26T13:25:16.385Z,1.10
2023-03-26T13:27:49.670Z,0.83
2023-03-26T13:30:25.430Z,2.87
2023-03-26T13:33:01.117Z,1.30
2023-03-26T13:35:32.335Z,2.53
2023-03-26T13:38:06.230Z,1.67
2023-03-26T13:40:39.003Z,1.20
2023-03-26T13:43:15.492Z,1.10
2023-03-26T13:45:53.532Z,1.23
2023-03-26T13:48:27.201Z,2.00
2023-03-26T13:51:03.770Z,0.97
2023-03-26T13:53:38.373Z,2.93
2023-03-26T13:56:09.510Z,2.40
2023-03-26T13:58:39.711Z,0.70
2023-03-26T14:01:09.418Z,0.70
2023-03-26T14:03:45.470Z,4.00
2023-03-26T14:06:18.808Z,1.10
2023-03-26T14:08:50.079Z,0.80
2023-03-26T14:11:20.666Z,1.37
2023-03-26T14:13:50.812Z,1.67
2023-03-26T14:16:21.367Z,4.50
2023-03-26T14:18:53.784Z,2.10
2023-03-26T14:21:41.280Z,0.80
2023-03-26T14:24:54.666Z,0.70
2023-03-26T14:27:41.584Z,0.90
2023-03-26T14:30:43.418Z,3.07
2023-03-26T14:33:27.904Z,1.37
2023-03-26T14:36:01.370Z,1.93
2023-03-26T14:39:15.764Z,2.93
2023-03-26T14:41:48.330Z,1.40
2023-03-26T14:44:48.415Z,3.77
2023-03-26T14:47:18.869Z,1.50
2023-03-26T14:50:21.512Z,5.90
2023-03-26T14:52:51.562Z,3.50
2023-03-26T14:55:29.428Z,2.73
2023-03-26T14:58:15.638Z,1.47
2023-03-26T15:01:17.301Z,2.93
2023-03-26T15:04:21.672Z,1.07
2023-03-26T15:07:15.481Z,2.80
2023-03-26T15:10:22.531Z,1.20
2023-03-26T15:13:12.948Z,1.17
2023-03-26T15:16:06.714Z,1.47
2023-03-26T15:19:14.724Z,2.90
2023-03-26T15:22:21.852Z,1.00
2023-03-26T15:25:29.949Z,1.57
2023-03-26T15:28:55.262Z,4.83
2023-03-26T15:31:51.383Z,3.20
2023-03-26T15:35:04.107Z,2.10
2023-03-26T15:38:13.589Z,2.00
2023-03-26T15:40:57.604Z,6.23
2023-03-26T15:43:26.473Z,1.90
2023-03-26T15:46:02.820Z,3.30
2023-03-26T15:48:39.182Z,1.83
2023-03-26T15:51:47.732Z,3.63
2023-03-26T15:54:24.282Z,2.60
2023-03-26T15:57:16.512Z,2.73
2023-03-26T15:59:54.340Z,1.27
2023-03-26T16:02:28.373Z,3.20
2023-03-26T16:04:57.429Z,1.27
2023-03-26T16:07:38.953Z,1.13
2023-03-26T16:10:31.510Z,3.40
2023-03-26T16:13:37.721Z,2.23
2023-03-26T16:16:45.840Z,2.13
2023-03-26T16:19:51.965Z,4.13
2023-03-26T16:22:47.386Z,4.00
2023-03-26T16:25:32.046Z,2.73
2023-03-26T16:28:22.295Z,4.30
2023-03-26T16:31:34.972Z,4.03
2023-03-26T16:34:27.780Z,2.67
2023-03-26T16:36:57.950Z,4.90
2023-03-26T16:39:38.754Z,7.50
2023-03-26T16:42:36.112Z,5.43
2023-03-26T16:45:18.912Z,3.07
2023-03-26T16:47:51.943Z,1.50
2023-03-26T16:50:25.930Z,1.53
2023-03-26T16:52:58.822Z,2.43
2023-03-26T16:55:29.845Z,3.83
2023-03-26T16:58:05.689Z,4.20
2023-03-26T17:00:49.250Z,3.50
2023-03-26T17:03:37.562Z,3.70
2023-03-26T17:06:23.942Z,4.90
2023-03-26T17:08:58.461Z,2.37
2023-03-26T17:11:31.696Z,2.00
2023-03-26T17:14:08.030Z,3.10
2023-03-26T17:16:38.790Z,3.07
2023-03-26T17:19:13.766Z,6.47
2023-03-26T17:21:47.339Z,6.10
2023-03-26T17:24:19.700Z,7.83
2023-03-26T17:26:52.205Z,4.80
2023-03-26T17:29:29.920Z,3.03
2023-03-26T17:32:03.353Z,2.87
2023-03-26T17:34:53.935Z,3.80
2023-03-26T17:37:48.148Z,4.27
2023-03-26T17:40:48.941Z,3.60
2023-03-26T17:43:36.533Z,4.00
2023-03-26T17:46:13.034Z,2.77
2023-03-26T17:48:45.640Z,1.40
2023-03-26T17:51:23.581Z,2.43
2023-03-26T17:53:53.532Z,2.30
2023-03-26T17:56:30.282Z,3.77
2023-03-26T17:59:11.474Z,2.50
2023-03-26T18:01:44.158Z,4.50
2023-03-26T18:04:15.684Z,1.57
2023-03-26T18:07:08.843Z,5.20
2023-03-26T18:09:44.345Z,3.57
2023-03-26T18:12:51.757Z,3.03
2023-03-26T18:15:35.449Z,7.00
2023-03-26T18:18:10.774Z,1.80
2023-03-26T18:20:42.526Z,4.27
2023-03-26T18:23:12.132Z,3.47
2023-03-26T18:25:41.301Z,3.77
2023-03-26T18:28:12.912Z,8.50
2023-03-26T18:30:47.804Z,3.70
2023-03-26T18:33:17.802Z,3.80
2023-03-26T18:35:47.419Z,6.07
2023-03-26T18:38:18.656Z,6.73
2023-03-26T18:41:05.906Z,1.90
2023-03-26T18:43:43.512Z,2.50
2023-03-26T18:46:13.594Z,5.70
2023-03-26T18:48:43.960Z,3.53
2023-03-26T18:51:12.699Z,1.57
2023-03-26T18:53:44.567Z,1.40
2023-03-26T18:56:30.208Z,4.70
2023-03-26T18:58:59.778Z,4.27
2023-03-26T19:01:31.613Z,2.30
2023-03-26T19:04:04.075Z,5.40
2023-03-26T19:06:36.057Z,9.77
2023-03-26T19:09:13.540Z,5.57
2023-03-26T19:11:51.852Z,3.63
2023-03-26T19:14:21.182Z,1.70
2023-03-26T19:16:54.055Z,4.23
2023-03-26T19:19:24.700Z,3.03
2023-03-26T19:21:53.371Z,9.40
2023-03-26T19:24:22.573Z,3.33
2023-03-26T19:26:51.269Z,4.80
2023-03-26T19:29:24.642Z,3.73
2023-03-26T19:31:53.400Z,3.90
2023-03-26T19:34:27.550Z,4.50
2023-03-26T19:36:59.442Z,4.03
2023-03-26T19:39:37.417Z,11.60
2023-03-26T19:42:07.146Z,5.83
2023-03-26T19:44:37.684Z,5.30
2023-03-26T19:47:08.874Z,8.17
2023-03-26T19:49:48.996Z,8.77
2023-03-26T19:52:21.777Z,9.13
2023-03-26T19:55:01.296Z,3.57
2023-03-26T19:57:30.817Z,5.30
2023-03-26T19:59:59.565Z,3.60
2023-03-26T20:02:28.500Z,7.33
2023-03-26T20:04:59.341Z,3.90
2023-03-26T20:07:35.630Z,5.53
2023-03-26T20:10:06.499Z,7.60
2023-03-26T20:12:35.168Z,9.60
2023-03-26T20:15:03.868Z,4.03
2023-03-26T20:17:34.740Z,10.37
2023-03-26T20:20:11.798Z,7.73
2023-03-26T20:22:40.430Z,10.83
2023-03-26T20:25:16.451Z,5.90
2023-03-26T20:27:45.171Z,13.83
2023-03-26T20:30:16.488Z,9.23
2023-03-26T20:32:49.673Z,3.27
2023-03-26T20:35:39.716Z,12.50
2023-03-26T20:38:09.694Z,9.60
2023-03-26T20:40:38.956Z,9.60
2023-03-26T20:43:12.863Z,8.83
2023-03-26T20:45:41.722Z,9.80
2023-03-26T20:48:11.124Z,6.37
2023-03-26T20:50:50.406Z,12.03
2023-03-26T20:53:20.414Z,9.80
2023-03-26T20:55:51.074Z,13.37
2023-03-26T20:58:31.427Z,10.07
2023-03-26T21:01:02.131Z,11.47
2023-03-26T21:03:31.152Z,11.20
2023-03-26T21:06:02.965Z,15.67
2023-03-26T21:08:37.680Z,11.93
2023-03-26T21:11:11.451Z,12.03
2023-03-26T21:13:41.957Z,17.13
2023-03-26T21:16:13.153Z,11.43
2023-03-26T21:18:42.747Z,11.40
2023-03-26T21:21:24.117Z,9.87
2023-03-26T21:23:59.265Z,7.90
2023-03-26T21:26:29.812Z,13.20
2023-03-26T21:28:59.230Z,12.73
2023-03-26T21:31:31.036Z,6.87
2023-03-26T21:34:00.210Z,9.20
2023-03-26T21:36:31.668Z,10.20
2023-03-26T21:39:01.269Z,19.00
2023-03-26T21:41:36.067Z,11.20
2023-03-26T21:44:04.910Z,11.53
2023-03-26T21:46:34.323Z,9.10
2023-03-26T21:49:03.438Z,11.83
2023-03-26T21:51:34.030Z,18.20
2023-03-26T21:54:03.741Z,9.27
2023-03-26T21:56:40.086Z,7.80
2023-03-26T21:59:11.668Z,13.07
2023-03-26T22:01:43.675Z,10.83
2023-03-26T22:04:14.236Z,8.63
2023-03-26T22:06:46.943Z,9.23
2023-03-26T22:09:18.518Z,5.67
2023-03-26T22:11:49.478Z,4.30
2023-03-26T22:14:18.230Z,14.67
2023-03-26T22:16:46.890Z,18.23
2023-03-26T22:19:15.776Z,6.33
2023-03-26T22:21:46.016Z,5.40
2023-03-26T22:24:14.617Z,13.17
2023-03-26T22:26:43.293Z,5.23
2023-03-26T22:29:12.304Z,7.73
2023-03-26T22:31:41.226Z,4.40
2023-03-26T22:34:09.957Z,5.90
2023-03-26T22:36:40.280Z,22.83
2023-03-26T22:39:10.718Z,6.37
2023-03-26T22:41:39.548Z,7.20
2023-03-26T22:44:19.262Z,13.10
2023-03-26T22:46:51.486Z,8.00
2023-03-26T22:49:20.416Z,14.80
2023-03-26T22:51:50.298Z,7.30
2023-03-26T22:54:20.288Z,7.73
2023-03-26T22:56:48.959Z,6.53
2023-03-26T22:59:17.794Z,4.57
2023-03-26T23:01:46.548Z,12.20
2023-03-26T23:04:31.611Z,10.07
2023-03-26T23:07:01.237Z,5.60
2023-03-26T23:09:31.524Z,11.80
2023-03-26T23:12:00.477Z,4.80
2023-03-26T23:14:32.340Z,8.33
2023-03-26T23:17:01.460Z,7.30
2023-03-26T23:19:30.489Z,15.60
2023-03-26T23:21:59.151Z,7.23
2023-03-26T23:24:27.842Z,15.63
2023-03-26T23:26:58.920Z,8.00
2023-03-26T23:29:27.538Z,2.97
2023-03-26T23:31:56.268Z,7.43
2023-03-26T23:34:25.162Z,7.20
2023-03-26T23:36:53.805Z,5.13
2023-03-26T23:39:22.443Z,9.53
2023-03-26T23:41:51.122Z,6.60
2023-03-26T23:44:21.170Z,6.03
2023-03-26T23:46:57.881Z,2.60
2023-03-26T23:49:27.800Z,8.87
2023-03-26T23:51:56.505Z,8.33
2023-03-26T23:54:25.593Z,9.13
2023-03-26T23:56:55.026Z,3.00
2023-03-26T23:59:25.293Z,13.03
